createdAt,value
2018-12-04T00:02:30.510Z,99833.46
2018-12-04T00:05:02.456Z,99835.61
2018-12-04T00:07:34.213Z,99836.34
2018-12-04T00:10:07.081Z,99841.83
2018-12-04T00:12:39.634Z,99842.77
2018-12-04T00:15:11.388Z,99842.50
2018-12-04T00:17:47.650Z,99842.58
2018-12-04T00:20:20.355Z,99842.28
2018-12-04T00:22:52.249Z,99844.34
2018-12-04T00:25:24.369Z,99853.06
2018-12-04T00:27:57.434Z,99853.06
2018-12-04T00:30:29.270Z,99852.34
2018-12-04T00:33:01.909Z,99853.38
2018-12-04T00:35:34.395Z,99856.38
2018-12-04T00:38:07.065Z,99857.46
2018-12-04T00:40:45.914Z,99858.09
2018-12-04T00:43:17.720Z,99859.48
2018-12-04T00:45:50.578Z,99864.25
2018-12-04T00:48:22.416Z,99877.91
2018-12-04T00:50:59.714Z,99879.08
2018-12-04T00:53:40.466Z,99882.53
2018-12-04T00:56:12.473Z,99886.21
2018-12-04T00:58:47.466Z,99894.80
2018-12-04T01:01:19.237Z,99893.36
2018-12-04T01:03:52.073Z,99893.67
2018-12-04T01:06:24.724Z,99894.86
2018-12-04T01:08:56.773Z,99907.81
2018-12-04T01:11:29.434Z,99909.02
2018-12-04T01:14:03.224Z,99912.93
2018-12-04T01:16:36.923Z,99918.29
2018-12-04T01:19:13.386Z,99924.35
2018-12-04T01:21:45.141Z,99929.35
2018-12-04T01:24:16.711Z,99933.28
2018-12-04T01:26:59.525Z,99936.47
2018-12-04T01:29:34.407Z,99944.09
2018-12-04T01:32:09.296Z,99952.30
2018-12-04T01:34:43.110Z,99952.42
2018-12-04T01:37:15.149Z,99952.22
2018-12-04T01:39:46.764Z,99950.18
2018-12-04T01:42:18.853Z,99965.11
2018-12-04T01:44:50.640Z,99967.34
2018-12-04T01:47:23.469Z,99970.50
2018-12-04T01:49:56.053Z,99969.77
2018-12-04T01:52:27.599Z,99975.28
2018-12-04T01:54:59.471Z,99979.96
2018-12-04T01:57:31.253Z,99976.59
2018-12-04T02:00:03.835Z,99976.89
2018-12-04T02:02:39.628Z,99980.13
2018-12-04T02:05:11.643Z,99987.42
2018-12-04T02:07:43.436Z,99986.63
2018-12-04T02:10:17.315Z,99989.75
2018-12-04T02:12:51.774Z,100003.00
2018-12-04T02:15:23.981Z,100005.67
2018-12-04T02:17:55.777Z,100006.20
2018-12-04T02:20:27.824Z,100008.81
2018-12-04T02:22:59.523Z,100010.27
2018-12-04T02:25:31.535Z,100021.84
2018-12-04T02:28:04.423Z,100024.06
2018-12-04T02:30:36.327Z,100027.53
2018-12-04T02:33:08.018Z,100033.67
2018-12-04T02:35:39.937Z,100024.45
2018-12-04T02:38:11.906Z,100042.38
2018-12-04T02:40:43.956Z,100047.98
2018-12-04T02:43:16.349Z,100054.53
2018-12-04T02:45:48.253Z,100057.71
2018-12-04T02:48:20.908Z,100057.81
2018-12-04T02:50:52.962Z,100058.76
2018-12-04T02:53:24.943Z,100068.67
2018-12-04T02:55:56.837Z,100054.42
2018-12-04T02:58:28.527Z,100064.81
2018-12-04T03:01:00.898Z,100067.09
2018-12-04T03:03:32.965Z,100070.30
2018-12-04T03:06:04.875Z,100072.84
2018-12-04T03:08:36.743Z,100079.06
2018-12-04T03:11:08.377Z,100080.77
2018-12-04T03:13:41.143Z,100083.17
2018-12-04T03:16:13.009Z,100080.09
2018-12-04T03:18:44.750Z,100083.60
2018-12-04T03:21:16.756Z,100089.62
2018-12-04T03:23:49.820Z,100086.80
2018-12-04T03:26:21.659Z,100077.69
2018-12-04T03:28:53.466Z,100080.19
2018-12-04T03:31:25.236Z,100092.61
2018-12-04T03:33:56.605Z,100095.69
2018-12-04T03:36:29.021Z,100095.41
2018-12-04T03:39:00.470Z,100101.84
2018-12-04T03:41:32.198Z,100107.41
2018-12-04T03:44:04.081Z,100115.45
2018-12-04T03:46:36.295Z,100112.59
2018-12-04T03:49:08.336Z,100125.80
2018-12-04T03:51:40.204Z,100124.67
2018-12-04T03:54:11.961Z,100135.03
2018-12-04T03:56:43.809Z,100139.88
2018-12-04T03:59:15.911Z,100137.83
2018-12-04T04:01:48.238Z,100141.95
2018-12-04T04:04:20.426Z,100138.11
2018-12-04T04:06:52.677Z,100136.50
2018-12-04T04:09:24.446Z,100142.09
2018-12-04T04:11:58.327Z,100140.38
2018-12-04T04:14:31.311Z,100134.28
2018-12-04T04:17:03.188Z,100133.32
2018-12-04T04:19:35.115Z,100128.36
2018-12-04T04:22:07.030Z,100129.63
2018-12-04T04:24:39.111Z,100121.53
2018-12-04T04:27:10.674Z,100125.17
2018-12-04T04:29:42.042Z,100117.55
2018-12-04T04:32:14.480Z,100113.10
2018-12-04T04:34:46.102Z,100115.48
2018-12-04T04:37:17.985Z,100113.91
2018-12-04T04:39:49.593Z,100112.98
2018-12-04T04:42:21.269Z,100116.35
2018-12-04T04:44:53.803Z,100111.56
2018-12-04T04:47:25.677Z,100110.77
2018-12-04T04:50:08.094Z,100110.60
2018-12-04T04:52:39.719Z,100111.17
2018-12-04T04:55:11.083Z,100108.42
2018-12-04T04:57:43.375Z,100103.12
2018-12-04T05:00:15.594Z,100107.24
2018-12-04T05:02:48.919Z,100103.01
2018-12-04T05:05:21.458Z,100104.53
2018-12-04T05:17:13.710Z,100105.62
2018-12-04T05:19:45.603Z,100106.21
2018-12-04T05:22:17.254Z,100110.41
2018-12-04T05:24:48.713Z,100106.27
2018-12-04T05:27:27.092Z,100105.32
2018-12-04T05:30:02.100Z,100100.99
2018-12-04T05:32:33.826Z,100103.48
2018-12-04T05:35:05.289Z,100100.02
2018-12-04T05:37:36.907Z,100102.54
2018-12-04T05:40:08.769Z,100101.48
2018-12-04T05:42:40.399Z,100099.72
2018-12-04T05:45:11.882Z,100084.94
2018-12-04T05:47:43.603Z,100081.10
2018-12-04T05:50:15.630Z,100080.01
2018-12-04T05:55:36.620Z,100074.29
2018-12-04T05:58:08.070Z,100058.33
2018-12-04T06:00:39.584Z,100053.30
2018-12-04T06:03:11.967Z,100054.28
2018-12-04T06:05:43.770Z,100044.43
2018-12-04T06:08:15.475Z,100037.73
2018-12-04T06:10:46.954Z,100039.98
2018-12-04T06:13:18.684Z,100033.57
2018-12-04T06:15:50.985Z,100030.42
2018-12-04T06:18:23.987Z,100033.13
2018-12-04T06:20:58.207Z,100030.78
2018-12-04T06:23:29.957Z,100023.30
2018-12-04T06:26:01.336Z,100027.09
2018-12-04T06:28:32.933Z,100013.13
2018-12-04T06:31:04.442Z,100017.88
2018-12-04T06:33:38.297Z,100007.94
2018-12-04T06:36:10.891Z,99999.88
2018-12-04T06:38:45.621Z,99996.41
2018-12-04T06:41:18.241Z,99988.70
2018-12-04T06:43:49.915Z,99983.05
2018-12-04T06:46:21.524Z,99985.30
2018-12-04T06:48:53.056Z,99970.61
2018-12-04T06:51:25.977Z,99966.05
2018-12-04T06:53:57.606Z,99956.16
2018-12-04T06:56:29.078Z,99950.13
2018-12-04T06:59:00.365Z,99949.22
2018-12-04T07:01:32.001Z,99939.79
2018-12-04T07:04:03.598Z,99943.08
2018-12-04T07:06:35.026Z,99937.52
2018-12-04T07:09:09.785Z,99930.03
2018-12-04T07:11:43.299Z,99926.55
2018-12-04T07:14:15.094Z,99919.98
2018-12-04T07:16:46.638Z,99913.27
2018-12-04T07:19:18.469Z,99913.44
2018-12-04T07:21:50.463Z,99905.09
2018-12-04T07:24:22.190Z,99901.53
2018-12-04T07:26:54.769Z,99894.05
2018-12-04T07:29:26.205Z,99886.44
2018-12-04T07:31:57.662Z,99884.56
2018-12-04T07:34:29.164Z,99875.23
2018-12-04T07:37:01.758Z,99875.46
2018-12-04T07:39:33.371Z,99861.30
2018-12-04T07:42:05.056Z,99855.50
2018-12-04T07:44:47.116Z,99855.41
2018-12-04T07:47:19.521Z,99853.00
2018-12-04T07:49:52.050Z,99851.39
2018-12-04T07:52:26.129Z,99848.55
2018-12-04T07:54:57.836Z,99834.28
2018-12-04T07:57:35.342Z,99832.83
2018-12-04T08:00:08.857Z,99830.94
2018-12-04T08:02:41.449Z,99829.05
2018-12-04T08:05:16.920Z,99820.86
2018-12-04T08:07:48.292Z,99823.08
2018-12-04T08:10:21.763Z,99813.30
2018-12-04T08:12:53.088Z,99809.88
2018-12-04T08:15:24.541Z,99807.84
2018-12-04T08:17:57.012Z,99812.00
2018-12-04T08:20:30.354Z,99802.77
2018-12-04T08:23:02.559Z,99803.91
2018-12-04T08:25:34.308Z,99799.61
2018-12-04T08:28:05.951Z,99795.83
2018-12-04T08:30:37.386Z,99785.61
2018-12-04T08:33:08.800Z,99780.84
2018-12-04T08:35:40.441Z,99778.63
2018-12-04T08:38:12.348Z,99785.33
2018-12-04T08:40:45.013Z,99782.91
2018-12-04T08:43:16.280Z,99769.23
2018-12-04T08:45:47.795Z,99760.75
2018-12-04T08:48:19.279Z,99763.89
2018-12-04T08:50:51.073Z,99759.77
2018-12-04T08:53:23.986Z,99754.59
2018-12-04T08:55:56.611Z,99749.89
2018-12-04T08:58:28.094Z,99741.83
2018-12-04T09:00:59.543Z,99741.91
2018-12-04T09:03:30.952Z,99735.25
2018-12-04T09:06:02.652Z,99731.86
2018-12-04T09:08:34.092Z,99732.06
2018-12-04T09:11:09.205Z,99727.53
2018-12-04T09:13:41.971Z,99721.17
2018-12-04T09:16:13.535Z,99719.64
2018-12-04T09:18:45.137Z,99714.84
2018-12-04T09:21:17.144Z,99710.44
2018-12-04T09:23:50.396Z,99711.03
2018-12-04T09:26:22.845Z,99709.72
2018-12-04T09:28:54.144Z,99710.06
2018-12-04T09:31:25.912Z,99707.09
2018-12-04T09:33:58.911Z,99698.15
2018-12-04T09:36:31.705Z,99693.94
2018-12-04T09:39:03.494Z,99689.99
2018-12-04T09:41:37.235Z,99692.42
2018-12-04T09:44:08.669Z,99688.56
2018-12-04T09:46:40.209Z,99691.02
2018-12-04T09:49:11.752Z,99683.21
2018-12-04T09:51:43.254Z,99675.16
2018-12-04T09:54:15.223Z,99679.48
2018-12-04T09:56:48.970Z,99680.03
2018-12-04T09:59:20.404Z,99683.05
2018-12-04T10:01:52.456Z,99673.46
2018-12-04T10:04:27.361Z,99679.66
2018-12-04T10:06:59.971Z,99674.31
2018-12-04T10:09:31.431Z,99680.18
2018-12-04T10:12:03.113Z,99679.19
2018-12-04T10:14:34.461Z,99671.77
2018-12-04T10:17:07.285Z,99675.33
2018-12-04T10:19:39.515Z,99669.59
2018-12-04T10:22:11.128Z,99675.23
2018-12-04T10:24:43.079Z,99678.16
2018-12-04T10:27:15.701Z,99681.71
2018-12-04T10:29:47.064Z,99670.53
2018-12-04T10:32:18.785Z,99677.39
2018-12-04T10:34:50.114Z,99676.62
2018-12-04T10:37:22.797Z,99676.16
2018-12-04T10:39:54.652Z,99675.88
2018-12-04T10:42:26.273Z,99669.22
2018-12-04T10:44:59.175Z,99671.38
2018-12-04T10:47:30.916Z,99674.22
2018-12-04T10:50:02.328Z,99666.80
2018-12-04T10:52:34.048Z,99674.95
2018-12-04T10:55:06.310Z,99669.69
2018-12-04T10:57:37.900Z,99668.20
2018-12-04T12:35:54.257Z,99709.45
2018-12-04T12:38:29.957Z,99715.47
2018-12-04T12:41:01.650Z,99709.30
2018-12-04T12:43:33.197Z,99723.95
2018-12-04T12:46:04.671Z,99721.27
2018-12-04T12:48:37.564Z,99724.20
2018-12-04T12:51:10.129Z,99727.20
2018-12-04T12:53:41.786Z,99720.34
2018-12-04T12:56:26.613Z,99730.46
2018-12-04T12:59:02.237Z,99725.09
2018-12-04T13:01:33.873Z,99734.37
2018-12-04T13:10:05.433Z,99738.12
2018-12-04T13:12:39.106Z,99737.30
2018-12-04T13:15:21.830Z,99749.16
2018-12-04T13:18:06.950Z,99748.35
2018-12-04T13:20:54.598Z,99746.77
2018-12-04T13:23:29.889Z,99751.25
2018-12-04T13:26:04.718Z,99751.36
2018-12-04T13:28:44.269Z,99755.69
2018-12-04T13:31:15.934Z,99751.59
2018-12-04T13:33:47.389Z,99753.98
2018-12-04T13:36:21.222Z,99757.64
2018-12-04T13:38:54.975Z,99761.30
2018-12-04T13:41:28.020Z,99766.13
2018-12-04T13:44:03.248Z,99772.02
2018-12-04T13:46:35.729Z,99769.78
2018-12-04T13:49:07.341Z,99772.37
2018-12-04T13:51:38.796Z,99775.26
2018-12-04T13:54:13.877Z,99771.05
2018-12-04T13:56:45.343Z,99775.75
2018-12-04T13:59:17.800Z,99775.83
2018-12-04T14:01:49.467Z,99778.46
2018-12-04T14:04:21.304Z,99778.08
2018-12-04T14:06:52.798Z,99776.03
2018-12-04T14:09:26.549Z,99775.88
2018-12-04T14:12:25.038Z,99778.77
2018-12-04T14:14:56.777Z,99779.54
2018-12-04T14:17:28.334Z,99794.39
2018-12-04T14:20:00.125Z,99794.92
2018-12-04T14:22:31.702Z,99796.19
2018-12-04T14:25:03.368Z,99795.59
2018-12-04T14:27:35.819Z,99796.38
2018-12-04T14:30:10.254Z,99802.70
2018-12-04T14:32:41.657Z,99807.35
2018-12-04T14:35:13.464Z,99807.43
2018-12-04T14:37:46.133Z,99802.05
2018-12-04T14:40:21.891Z,99804.05
2018-12-04T14:42:55.653Z,99800.87
2018-12-04T14:45:28.203Z,99812.02
2018-12-04T14:48:01.609Z,99807.91
2018-12-04T14:50:33.281Z,99806.52
2018-12-04T14:53:05.768Z,99812.08
2018-12-04T14:55:37.455Z,99816.87
2018-12-04T14:58:09.865Z,99818.31
2018-12-04T15:00:41.716Z,99818.80
2018-12-04T15:03:13.173Z,99815.48
2018-12-04T15:05:45.796Z,99816.98
2018-12-04T15:08:18.212Z,99823.84
2018-12-04T15:10:49.605Z,99825.87
2018-12-04T15:13:21.507Z,99825.70
2018-12-04T15:15:53.124Z,99828.88
2018-12-04T15:18:26.569Z,99824.59
2018-12-04T15:20:58.255Z,99825.83
2018-12-04T15:23:29.783Z,99832.77
2018-12-04T15:26:02.744Z,99839.28
2018-12-04T15:28:39.033Z,99837.17
2018-12-04T15:31:21.227Z,99832.09
2018-12-04T15:33:52.784Z,99829.92
2018-12-04T15:36:24.483Z,99831.14
2018-12-04T15:38:57.345Z,99824.68
2018-12-04T15:41:30.048Z,99828.00
2018-12-04T15:44:05.615Z,99830.01
2018-12-04T15:46:38.197Z,99827.30
2018-12-04T15:49:09.929Z,99823.75
2018-12-04T15:51:44.653Z,99830.34
2018-12-04T15:54:19.467Z,99828.10
2018-12-04T15:56:55.814Z,99821.88
2018-12-04T15:59:27.842Z,99819.31
2018-12-04T16:02:00.457Z,99826.01
2018-12-04T16:04:32.888Z,99828.33
2018-12-04T16:07:04.519Z,99835.17
2018-12-04T16:09:35.912Z,99831.91
2018-12-04T16:12:09.412Z,99838.13
2018-12-04T16:14:41.655Z,99837.17
2018-12-04T16:17:15.335Z,99838.30
2018-12-04T16:19:48.462Z,99840.45
2018-12-04T16:22:20.992Z,99838.30
2018-12-04T16:24:57.172Z,99848.21
2018-12-04T16:27:33.625Z,99843.47
2018-12-04T16:30:05.826Z,99854.16
2018-12-04T16:32:37.511Z,99848.18
2018-12-04T16:35:12.598Z,99847.20
2018-12-04T16:37:44.272Z,99851.19
2018-12-04T16:40:15.940Z,99845.36
2018-12-04T16:42:47.476Z,99842.16
2018-12-04T16:45:19.557Z,99839.20
2018-12-04T16:47:52.164Z,99838.70
2018-12-04T16:50:32.433Z,99831.38
2018-12-04T16:53:03.965Z,99829.78
2018-12-04T16:55:36.505Z,99828.24
2018-12-04T16:58:12.784Z,99835.48
2018-12-04T17:00:44.318Z,99831.61
2018-12-04T17:03:19.829Z,99835.06
2018-12-04T17:05:56.154Z,99840.19
2018-12-04T17:08:28.633Z,99836.00
2018-12-04T17:10:59.963Z,99835.61
2018-12-04T17:13:37.578Z,99832.84
2018-12-04T17:16:10.648Z,99835.34
2018-12-04T17:18:42.192Z,99834.04
2018-12-04T17:21:19.304Z,99830.69
2018-12-04T17:23:51.011Z,99833.25
2018-12-04T17:26:24.722Z,99828.70
2018-12-04T17:28:56.254Z,99834.72
2018-12-04T17:31:27.666Z,99831.48
2018-12-04T17:33:59.251Z,99834.95
2018-12-04T17:36:30.877Z,99834.66
2018-12-04T17:39:02.424Z,99833.17
2018-12-04T17:41:39.943Z,99834.92
2018-12-04T17:44:14.659Z,99830.80
2018-12-04T17:46:53.924Z,99833.01
2018-12-04T17:49:29.324Z,99832.89
2018-12-04T17:52:04.785Z,99833.01
2018-12-04T17:54:37.542Z,99838.39
2018-12-04T17:57:10.672Z,99832.92
2018-12-04T17:59:44.895Z,99828.79
2018-12-04T18:02:18.701Z,99830.38
2018-12-04T18:04:57.505Z,99833.04
2018-12-04T18:07:43.081Z,99823.59
2018-12-04T18:10:20.642Z,99822.59
2018-12-04T18:12:57.011Z,99812.02
2018-12-04T18:15:35.343Z,99821.03
2018-12-04T18:18:14.002Z,99826.66
2018-12-04T18:20:58.518Z,99822.92
2018-12-04T18:23:47.560Z,99825.80
2018-12-04T18:26:20.626Z,99816.19
2018-12-04T18:28:56.754Z,99813.40
2018-12-04T18:31:33.798Z,99809.47
2018-12-04T18:34:09.465Z,99806.80
2018-12-04T18:36:52.348Z,99804.89
2018-12-04T18:39:29.135Z,99805.88
2018-12-04T18:42:01.637Z,99801.64
2018-12-04T18:44:45.064Z,99803.27
2018-12-04T18:47:18.718Z,99799.56
2018-12-04T18:49:54.105Z,99795.55
2018-12-04T18:52:34.639Z,99790.21
2018-12-04T18:55:07.794Z,99784.58
2018-12-04T18:57:45.996Z,99789.95
2018-12-04T19:00:22.578Z,99791.39
2018-12-04T19:06:04.824Z,99784.81
2018-12-04T19:08:43.089Z,99786.66
2018-12-04T19:11:16.732Z,99782.00
2018-12-04T19:16:51.736Z,99779.98
2018-12-04T19:22:27.673Z,99781.81
2018-12-04T19:25:02.763Z,99777.10
2018-12-04T19:27:35.210Z,99775.95
2018-12-04T19:30:21.080Z,99780.37
2018-12-04T19:32:56.383Z,99782.08
2018-12-04T19:35:34.965Z,99785.45
2018-12-04T19:38:11.245Z,99782.70
2018-12-04T19:40:59.965Z,99781.51
2018-12-04T19:43:56.254Z,99777.63
2018-12-04T19:46:39.508Z,99782.46
2018-12-04T19:49:14.664Z,99777.50
2018-12-04T19:51:46.384Z,99780.23
2018-12-04T19:54:38.557Z,99776.52
2018-12-04T19:57:16.156Z,99775.27
2018-12-04T19:59:52.944Z,99776.98
2018-12-04T20:02:29.704Z,99778.94
2018-12-04T20:05:01.290Z,99777.25
2018-12-04T20:07:38.458Z,99784.52
2018-12-04T20:10:13.313Z,99775.59
2018-12-04T20:12:44.986Z,99778.13
2018-12-04T20:15:23.579Z,99773.13
2018-12-04T20:17:56.016Z,99777.69
2018-12-04T20:20:27.465Z,99767.94
2018-12-04T20:23:05.962Z,99768.61
2018-12-04T20:25:43.541Z,99767.76
2018-12-04T20:28:24.318Z,99766.80
2018-12-04T20:30:55.825Z,99762.16
2018-12-04T20:33:28.488Z,99757.22
2018-12-04T20:36:03.753Z,99754.41
2018-12-04T20:38:40.295Z,99751.63
2018-12-04T20:41:11.871Z,99760.09
2018-12-04T20:43:58.490Z,99759.80
2018-12-04T20:46:35.280Z,99767.16
2018-12-04T20:49:10.149Z,99754.64
2018-12-04T20:51:41.798Z,99746.75
2018-12-04T20:54:19.237Z,99747.27
2018-12-04T20:56:55.004Z,99738.81
2018-12-04T20:59:42.752Z,99742.36
2018-12-04T21:02:20.729Z,99736.46
2018-12-04T21:05:14.458Z,99742.69
2018-12-04T21:07:51.950Z,99748.41
2018-12-04T21:10:29.830Z,99741.67
2018-12-04T21:13:01.156Z,99746.06
2018-12-04T21:15:32.874Z,99748.91
2018-12-04T21:18:16.135Z,99754.34
2018-12-04T21:21:04.449Z,99747.75
2018-12-04T21:23:39.336Z,99745.39
2018-12-04T21:26:15.937Z,99731.77
2018-12-04T21:28:55.570Z,99731.61
2018-12-04T21:31:39.932Z,99727.23
2018-12-04T21:34:25.715Z,99737.22
2018-12-04T21:37:02.077Z,99732.93
2018-12-04T21:39:36.217Z,99733.68
2018-12-04T21:42:12.920Z,99722.33
2018-12-04T21:46:51.344Z,99718.06
2018-12-04T21:49:28.539Z,99710.06
2018-12-04T21:52:05.877Z,99702.77
2018-12-04T21:54:37.515Z,99699.77
2018-12-04T21:57:16.187Z,99699.23
2018-12-04T21:59:51.982Z,99698.52
2018-12-04T22:02:23.521Z,99693.41
2018-12-04T22:04:55.297Z,99698.17
2018-12-04T22:07:26.940Z,99699.67
2018-12-04T22:10:05.808Z,99687.19
2018-12-04T22:12:37.044Z,99689.13
2018-12-04T22:15:09.537Z,99686.98
2018-12-04T22:17:40.934Z,99680.46
2018-12-04T22:20:14.088Z,99679.16
2018-12-04T22:25:48.323Z,99673.84
2018-12-04T22:31:19.979Z,99676.23
2018-12-04T22:33:56.513Z,99678.16
2018-12-04T22:36:28.119Z,99670.33
2018-12-04T22:39:09.437Z,99670.23
2018-12-04T22:41:42.377Z,99663.16
2018-12-04T22:44:13.735Z,99657.84
2018-12-04T22:46:49.023Z,99656.80
2018-12-04T22:49:26.369Z,99651.34
2018-12-04T22:51:57.959Z,99652.23
2018-12-04T22:54:32.681Z,99643.34
2018-12-04T22:57:09.117Z,99640.84
2018-12-04T23:00:00.913Z,99642.55
2018-12-04T23:02:41.908Z,99644.25
2018-12-04T23:05:31.493Z,99640.16
2018-12-04T23:08:06.497Z,99644.11
2018-12-04T23:13:36.994Z,99651.08
2018-12-04T23:16:12.365Z,99642.60
2018-12-04T23:18:49.062Z,99643.63
2018-12-04T23:21:25.224Z,99635.21
2018-12-04T23:23:57.080Z,99641.08
2018-12-04T23:26:33.206Z,99646.53
2018-12-04T23:32:10.545Z,99648.61
2018-12-04T23:34:51.644Z,99647.62
2018-12-04T23:37:27.197Z,99648.68
2018-12-04T23:40:07.519Z,99646.13
2018-12-04T23:45:37.734Z,99645.50
2018-12-04T23:48:09.698Z,99647.47
2018-12-04T23:50:41.563Z,99653.31
2018-12-04T23:53:15.722Z,99646.97
2018-12-04T23:55:54.454Z,99654.64
2018-12-04T23:58:25.928Z,99655.70
